sensor_id;sensor_type;location;lat;lon;timestamp;pressure;altitude;pressure_sealevel;temperature;humidity
25610;BME280;13479;49.044;8.716;2022-10-15T04:02:32;98390.75;;;16.89;100.00
25610;BME280;13479;49.044;8.716;2022-10-15T04:04:57;98386.56;;;16.86;100.00
25610;BME280;13479;49.044;8.716;2022-10-15T04:07:23;98385.19;;;16.90;100.00
25610;BME280;13479;49.044;8.716;2022-10-15T04:09:48;98384.53;;;16.88;100.00
25610;BME280;13479;49.044;8.716;2022-10-15T04:12:13;98381.34;;;16.78;100.00
25610;BME280;13479;49.044;8.716;2022-10-15T04:14:39;98369.59;;;16.79;100.00
25610;BME280;13479;49.044;8.716;2022-10-15T04:17:05;98381.13;;;16.79;100.00
25610;BME280;13479;49.044;8.716;2022-10-15T04:19:31;98383.09;;;16.86;100.00
25610;BME280;13479;49.044;8.716;2022-10-15T04:21:56;98396.56;;;16.92;100.00
25610;BME280;13479;49.044;8.716;2022-10-15T04:24:21;98408.03;;;16.86;100.00
25610;BME280;13479;49.044;8.716;2022-10-15T04:26:47;98416.72;;;16.88;100.00
25610;BME280;13479;49.044;8.716;2022-10-15T04:29:12;98419.59;;;16.87;100.00
25610;BME280;13479;49.044;8.716;2022-10-15T04:31:37;98415.50;;;16.91;100.00
25610;BME280;13479;49.044;8.716;2022-10-15T04:34:03;98418.28;;;16.82;100.00
25610;BME280;13479;49.044;8.716;2022-10-15T04:36:28;98413.38;;;16.86;100.00
25610;BME280;13479;49.044;8.716;2022-10-15T04:38:53;98424.09;;;16.86;100.00
25610;BME280;13479;49.044;8.716;2022-10-15T04:41:19;98440.28;;;16.93;100.00
25610;BME280;13479;49.044;8.716;2022-10-15T04:43:44;98429.88;;;16.83;100.00
25610;BME280;13479;49.044;8.716;2022-10-15T04:46:09;98414.41;;;16.85;100.00
25610;BME280;13479;49.044;8.716;2022-10-15T04:48:36;98420.41;;;16.87;100.00
25610;BME280;13479;49.044;8.716;2022-10-15T04:51:06;98421.06;;;16.89;100.00
25610;BME280;13479;49.044;8.716;2022-10-15T04:53:32;98423.38;;;16.92;100.00
25610;BME280;13479;49.044;8.716;2022-10-15T04:56:03;98437.25;;;16.81;100.00
25610;BME280;13479;49.044;8.716;2022-10-15T04:58:32;98430.47;;;16.85;100.00
25610;BME280;13479;49.044;8.716;2022-10-15T05:01:05;98448.88;;;16.88;100.00
25610;BME280;13479;49.044;8.716;2022-10-15T05:03:33;98439.81;;;16.89;100.00
25610;BME280;13479;49.044;8.716;2022-10-15T05:06:04;98422.94;;;16.89;100.00
25610;BME280;13479;49.044;8.716;2022-10-15T05:08:31;98423.38;;;16.92;100.00
25610;BME280;13479;49.044;8.716;2022-10-15T05:11:07;98416.63;;;16.81;100.00
25610;BME280;13479;49.044;8.716;2022-10-15T05:13:33;98413.47;;;16.93;99.89
25610;BME280;13479;49.044;8.716;2022-10-15T05:16:16;98410.81;;;16.78;100.00
25610;BME280;13479;49.044;8.716;2022-10-15T05:18:43;98406.09;;;16.80;100.00
25610;BME280;13479;49.044;8.716;2022-10-15T05:21:10;98425.41;;;16.90;99.82
25610;BME280;13479;49.044;8.716;2022-10-15T05:23:36;98432.91;;;16.80;99.53
25610;BME280;13479;49.044;8.716;2022-10-15T05:26:04;98437.63;;;16.78;100.00
25610;BME280;13479;49.044;8.716;2022-10-15T05:28:30;98430.03;;;16.81;100.00
25610;BME280;13479;49.044;8.716;2022-10-15T05:30:56;98435.06;;;16.70;100.00
25610;BME280;13479;49.044;8.716;2022-10-15T05:33:26;98449.81;;;16.80;99.71
25610;BME280;13479;49.044;8.716;2022-10-15T05:35:52;98464.06;;;16.81;99.27
25610;BME280;13479;49.044;8.716;2022-10-15T05:38:17;98450.38;;;16.76;99.96
25610;BME280;13479;49.044;8.716;2022-10-15T05:40:47;98456.47;;;16.85;98.98
25610;BME280;13479;49.044;8.716;2022-10-15T05:43:13;98451.22;;;16.76;99.63
25610;BME280;13479;49.044;8.716;2022-10-15T05:45:38;98464.06;;;16.81;98.41
25610;BME280;13479;49.044;8.716;2022-10-15T05:48:03;98461.56;;;16.79;97.36
25610;BME280;13479;49.044;8.716;2022-10-15T05:50:29;98447.81;;;16.67;98.51
25610;BME280;13479;49.044;8.716;2022-10-15T05:52:54;98461.84;;;16.70;98.16
25610;BME280;13479;49.044;8.716;2022-10-15T05:55:19;98461.41;;;16.66;97.90
25610;BME280;13479;49.044;8.716;2022-10-15T05:57:44;98457.63;;;16.60;98.25
25610;BME280;13479;49.044;8.716;2022-10-15T06:00:10;98451.84;;;16.63;98.71
25610;BME280;13479;49.044;8.716;2022-10-15T06:02:36;98456.75;;;16.60;99.36
25610;BME280;13479;49.044;8.716;2022-10-15T06:05:01;98479.97;;;16.67;97.91
25610;BME280;13479;49.044;8.716;2022-10-15T06:07:26;98487.81;;;16.69;97.97
25610;BME280;13479;49.044;8.716;2022-10-15T06:09:52;98496.31;;;16.73;97.30
25610;BME280;13479;49.044;8.716;2022-10-15T06:12:17;98495.19;;;16.67;97.31
25610;BME280;13479;49.044;8.716;2022-10-15T06:14:42;98475.81;;;16.65;98.18
25610;BME280;13479;49.044;8.716;2022-10-15T06:17:07;98476.25;;;16.68;98.11
25610;BME280;13479;49.044;8.716;2022-10-15T06:19:32;98474.25;;;16.71;98.72
25610;BME280;13479;49.044;8.716;2022-10-15T06:21:58;98483.66;;;16.81;98.38
25610;BME280;13479;49.044;8.716;2022-10-15T06:24:23;98497.50;;;16.85;97.44
25610;BME280;13479;49.044;8.716;2022-10-15T06:26:48;98509.88;;;16.86;97.06
25610;BME280;13479;49.044;8.716;2022-10-15T06:29:13;98509.53;;;16.89;96.86
25610;BME280;13479;49.044;8.716;2022-10-15T06:31:39;98510.34;;;16.90;96.79
25610;BME280;13479;49.044;8.716;2022-10-15T06:34:04;98504.16;;;16.89;97.00
25610;BME280;13479;49.044;8.716;2022-10-15T06:36:29;98519.81;;;17.01;96.35
25610;BME280;13479;49.044;8.716;2022-10-15T06:38:54;98529.53;;;17.02;95.66
25610;BME280;13479;49.044;8.716;2022-10-15T06:41:20;98519.81;;;17.01;95.71
25610;BME280;13479;49.044;8.716;2022-10-15T06:43:48;98521.28;;;17.03;95.71
25610;BME280;13479;49.044;8.716;2022-10-15T06:46:13;98536.66;;;17.09;95.11
25610;BME280;13479;49.044;8.716;2022-10-15T06:48:38;98524.25;;;17.08;95.14
25610;BME280;13479;49.044;8.716;2022-10-15T06:51:04;98538.38;;;17.17;94.23
25610;BME280;13479;49.044;8.716;2022-10-15T06:53:30;98531.75;;;17.13;94.95
25610;BME280;13479;49.044;8.716;2022-10-15T06:56:02;98536.34;;;17.19;94.27
25610;BME280;13479;49.044;8.716;2022-10-15T06:58:28;98549.09;;;17.32;92.42
25610;BME280;13479;49.044;8.716;2022-10-15T07:01:02;98531.91;;;17.26;92.30
25610;BME280;13479;49.044;8.716;2022-10-15T07:03:27;98518.22;;;17.21;93.87
25610;BME280;13479;49.044;8.716;2022-10-15T07:05:53;98520.03;;;17.36;93.66
25610;BME280;13479;49.044;8.716;2022-10-15T07:08:18;98536.13;;;17.36;93.12
25610;BME280;13479;49.044;8.716;2022-10-15T07:10:43;98535.78;;;17.39;93.64
25610;BME280;13479;49.044;8.716;2022-10-15T07:13:09;98526.66;;;17.40;94.12
25610;BME280;13479;49.044;8.716;2022-10-15T07:15:34;98525.94;;;17.46;94.43
25610;BME280;13479;49.044;8.716;2022-10-15T07:17:59;98509.47;;;17.49;94.44
25610;BME280;13479;49.044;8.716;2022-10-15T07:20:29;98540.91;;;17.55;94.00
25610;BME280;13479;49.044;8.716;2022-10-15T07:22:59;98534.88;;;17.53;94.41
25610;BME280;13479;49.044;8.716;2022-10-15T07:25:25;98527.75;;;17.60;94.59
25610;BME280;13479;49.044;8.716;2022-10-15T07:27:50;98531.69;;;17.65;94.63
25610;BME280;13479;49.044;8.716;2022-10-15T07:30:16;98555.50;;;17.68;93.42
25610;BME280;13479;49.044;8.716;2022-10-15T07:32:41;98553.81;;;17.67;93.83
25610;BME280;13479;49.044;8.716;2022-10-15T07:35:07;98561.38;;;17.78;92.73
25610;BME280;13479;49.044;8.716;2022-10-15T07:37:33;98565.16;;;17.84;90.25
25610;BME280;13479;49.044;8.716;2022-10-15T07:39:58;98542.22;;;17.81;90.32
25610;BME280;13479;49.044;8.716;2022-10-15T07:42:24;98525.84;;;17.76;91.52
25610;BME280;13479;49.044;8.716;2022-10-15T07:44:49;98513.06;;;17.78;92.61
25610;BME280;13479;49.044;8.716;2022-10-15T07:47:14;98523.94;;;17.91;92.89
25610;BME280;13479;49.044;8.716;2022-10-15T07:49:40;98551.06;;;17.97;91.70
25610;BME280;13479;49.044;8.716;2022-10-15T07:52:05;98565.56;;;18.02;91.39
25610;BME280;13479;49.044;8.716;2022-10-15T07:54:32;98548.44;;;18.03;92.24
25610;BME280;13479;49.044;8.716;2022-10-15T07:56:57;98542.31;;;18.10;92.71
25610;BME280;13479;49.044;8.716;2022-10-15T07:59:23;98574.59;;;18.16;90.55
25610;BME280;13479;49.044;8.716;2022-10-15T08:01:48;98563.44;;;18.19;90.53
25610;BME280;13479;49.044;8.716;2022-10-15T08:04:15;98566.03;;;18.28;89.76
25610;BME280;13479;49.044;8.716;2022-10-15T08:06:40;98566.91;;;18.35;88.21
25610;BME280;13479;49.044;8.716;2022-10-15T08:09:05;98551.81;;;18.34;89.02
25610;BME280;13479;49.044;8.716;2022-10-15T08:11:31;98550.41;;;18.38;89.09
25610;BME280;13479;49.044;8.716;2022-10-15T08:13:56;98547.34;;;18.48;89.56
25610;BME280;13479;49.044;8.716;2022-10-15T08:16:21;98565.19;;;18.56;89.13
25610;BME280;13479;49.044;8.716;2022-10-15T08:18:46;98574.34;;;18.61;88.72
25610;BME280;13479;49.044;8.716;2022-10-15T08:21:12;98576.31;;;18.74;86.78
25610;BME280;13479;49.044;8.716;2022-10-15T08:23:37;98573.63;;;18.81;85.56
25610;BME280;13479;49.044;8.716;2022-10-15T08:26:03;98547.81;;;18.80;85.95
25610;BME280;13479;49.044;8.716;2022-10-15T08:28:29;98547.44;;;18.90;86.21
25610;BME280;13479;49.044;8.716;2022-10-15T08:30:59;98542.97;;;18.97;86.21
25610;BME280;13479;49.044;8.716;2022-10-15T08:33:24;98559.56;;;19.07;84.30
25610;BME280;13479;49.044;8.716;2022-10-15T08:35:49;98561.66;;;19.12;83.58
25610;BME280;13479;49.044;8.716;2022-10-15T08:38:14;98533.91;;;19.11;82.09
25610;BME280;13479;49.044;8.716;2022-10-15T08:40:40;98539.50;;;19.10;82.21
25610;BME280;13479;49.044;8.716;2022-10-15T08:43:22;98525.63;;;19.06;82.83
25610;BME280;13479;49.044;8.716;2022-10-15T08:45:48;98508.22;;;19.02;83.90
25610;BME280;13479;49.044;8.716;2022-10-15T08:48:33;98512.31;;;18.98;84.06
25610;BME280;13479;49.044;8.716;2022-10-15T08:51:16;98529.53;;;18.97;84.00
25610;BME280;13479;49.044;8.716;2022-10-15T08:53:46;98532.84;;;19.06;83.04
25610;BME280;13479;49.044;8.716;2022-10-15T08:58:59;98542.59;;;19.07;83.81
25610;BME280;13479;49.044;8.716;2022-10-15T09:04:20;98577.03;;;19.25;81.88
25610;BME280;13479;49.044;8.716;2022-10-15T09:06:52;98552.94;;;19.52;82.42
25610;BME280;13479;49.044;8.716;2022-10-15T09:14:49;98585.06;;;19.60;79.16
25610;BME280;13479;49.044;8.716;2022-10-15T09:17:20;98541.72;;;19.41;80.94
25610;BME280;13479;49.044;8.716;2022-10-15T09:19:52;98522.00;;;19.34;81.59
25610;BME280;13479;49.044;8.716;2022-10-15T09:22:22;98518.47;;;19.27;82.26
25610;BME280;13479;49.044;8.716;2022-10-15T09:24:48;98542.72;;;19.34;81.66
25610;BME280;13479;49.044;8.716;2022-10-15T09:30:17;98592.78;;;19.28;79.84
25610;BME280;13479;49.044;8.716;2022-10-15T09:32:58;98584.44;;;19.16;80.50
25610;BME280;13479;49.044;8.716;2022-10-15T09:35:33;98572.59;;;19.10;80.71
25610;BME280;13479;49.044;8.716;2022-10-15T09:43:29;98585.44;;;19.57;78.42
25610;BME280;13479;49.044;8.716;2022-10-15T09:45:58;98577.03;;;19.73;78.46
25610;BME280;13479;49.044;8.716;2022-10-15T09:48:27;98577.97;;;20.08;78.25
25610;BME280;13479;49.044;8.716;2022-10-15T09:50:58;98582.75;;;20.86;74.22
25610;BME280;13479;49.044;8.716;2022-10-15T09:53:43;98561.13;;;21.97;71.51
25610;BME280;13479;49.044;8.716;2022-10-15T09:56:14;98542.28;;;23.10;69.07
25610;BME280;13479;49.044;8.716;2022-10-15T09:58:52;98522.47;;;23.47;64.65
25610;BME280;13479;49.044;8.716;2022-10-15T10:01:20;98519.09;;;23.52;64.53
25610;BME280;13479;49.044;8.716;2022-10-15T10:03:51;98519.41;;;23.43;63.89
25610;BME280;13479;49.044;8.716;2022-10-15T10:06:17;98520.78;;;23.34;62.25
25610;BME280;13479;49.044;8.716;2022-10-15T10:08:49;98469.50;;;23.02;64.55
25610;BME280;13479;49.044;8.716;2022-10-15T10:11:15;98430.44;;;22.79;65.37
25610;BME280;13479;49.044;8.716;2022-10-15T10:13:50;98476.09;;;22.50;65.06
25610;BME280;13479;49.044;8.716;2022-10-15T10:16:18;98519.13;;;22.27;64.09
25610;BME280;13479;49.044;8.716;2022-10-15T10:19:01;98496.47;;;21.70;65.05
25610;BME280;13479;49.044;8.716;2022-10-15T10:21:34;98456.34;;;21.35;65.33
25610;BME280;13479;49.044;8.716;2022-10-15T10:24:24;98423.91;;;21.10;67.45
25610;BME280;13479;49.044;8.716;2022-10-15T10:26:52;98431.44;;;20.94;68.75
25610;BME280;13479;49.044;8.716;2022-10-15T10:29:19;98468.34;;;21.01;67.80
25610;BME280;13479;49.044;8.716;2022-10-15T10:31:46;98454.44;;;21.04;69.43
25610;BME280;13479;49.044;8.716;2022-10-15T10:34:17;98478.97;;;21.41;68.87
25610;BME280;13479;49.044;8.716;2022-10-15T10:36:50;98524.81;;;21.54;67.43
25610;BME280;13479;49.044;8.716;2022-10-15T10:39:41;98523.53;;;21.64;68.14
25610;BME280;13479;49.044;8.716;2022-10-15T10:44:42;98558.69;;;21.89;66.77
25610;BME280;13479;49.044;8.716;2022-10-15T10:47:17;98577.31;;;22.04;65.38
25610;BME280;13479;49.044;8.716;2022-10-15T10:49:51;98555.97;;;22.21;65.29
25610;BME280;13479;49.044;8.716;2022-10-15T10:52:29;98570.00;;;22.43;64.43
25610;BME280;13479;49.044;8.716;2022-10-15T10:55:17;98580.97;;;22.74;62.73
25610;BME280;13479;49.044;8.716;2022-10-15T10:57:57;98570.50;;;23.70;60.19
25610;BME280;13479;49.044;8.716;2022-10-15T11:00:42;98562.19;;;24.69;58.17
25610;BME280;13479;49.044;8.716;2022-10-15T11:03:22;98558.69;;;25.33;56.43
25610;BME280;13479;49.044;8.716;2022-10-15T11:05:59;98576.84;;;25.85;52.05
25610;BME280;13479;49.044;8.716;2022-10-15T11:08:37;98563.69;;;25.65;53.25
25610;BME280;13479;49.044;8.716;2022-10-15T11:16:38;98525.53;;;25.19;54.32
25610;BME280;13479;49.044;8.716;2022-10-15T11:19:16;98533.09;;;25.17;53.60
25610;BME280;13479;49.044;8.716;2022-10-15T11:27:51;98496.91;;;24.28;54.15
25610;BME280;13479;49.044;8.716;2022-10-15T11:30:42;98497.97;;;24.15;54.28
25610;BME280;13479;49.044;8.716;2022-10-15T11:38:49;98432.66;;;23.20;56.24
25610;BME280;13479;49.044;8.716;2022-10-15T11:41:44;98425.44;;;22.95;56.17
25610;BME280;13479;49.044;8.716;2022-10-15T11:44:25;98417.19;;;22.71;56.64
25610;BME280;13479;49.044;8.716;2022-10-15T11:53:26;98415.03;;;22.17;57.87
25610;BME280;13479;49.044;8.716;2022-10-15T11:56:04;98417.19;;;22.09;58.79
25610;BME280;13479;49.044;8.716;2022-10-15T11:58:38;98412.69;;;22.02;59.83
25610;BME280;13479;49.044;8.716;2022-10-15T12:01:29;98433.09;;;21.98;59.55
25610;BME280;13479;49.044;8.716;2022-10-15T12:04:10;98427.16;;;21.89;60.19
25610;BME280;13479;49.044;8.716;2022-10-15T12:06:42;98424.88;;;21.86;59.97
25610;BME280;13479;49.044;8.716;2022-10-15T12:09:12;98433.41;;;21.83;59.98
25610;BME280;13479;49.044;8.716;2022-10-15T12:11:52;98431.31;;;21.85;60.04
25610;BME280;13479;49.044;8.716;2022-10-15T12:14:29;98446.78;;;22.03;59.41
25610;BME280;13479;49.044;8.716;2022-10-15T12:17:16;98514.91;;;22.12;58.42
25610;BME280;13479;49.044;8.716;2022-10-15T12:19:54;98485.00;;;22.07;59.31
25610;BME280;13479;49.044;8.716;2022-10-15T12:22:40;98509.25;;;22.14;57.99
25610;BME280;13479;49.044;8.716;2022-10-15T12:28:03;98508.09;;;22.03;58.24
25610;BME280;13479;49.044;8.716;2022-10-15T12:30:31;98521.66;;;21.96;57.69
25610;BME280;13479;49.044;8.716;2022-10-15T12:32:59;98455.47;;;21.80;59.44
25610;BME280;13479;49.044;8.716;2022-10-15T12:35:38;98444.50;;;21.75;58.81
25610;BME280;13479;49.044;8.716;2022-10-15T12:38:21;98466.94;;;21.75;57.87
25610;BME280;13479;49.044;8.716;2022-10-15T12:40:56;98470.16;;;21.59;58.80
25610;BME280;13479;49.044;8.716;2022-10-15T12:43:23;98434.19;;;21.58;59.78
25610;BME280;13479;49.044;8.716;2022-10-15T12:45:57;98413.09;;;21.49;60.57
25610;BME280;13479;49.044;8.716;2022-10-15T12:48:32;98413.75;;;21.44;61.08
25610;BME280;13479;49.044;8.716;2022-10-15T12:53:51;98436.59;;;21.41;60.61
25610;BME280;13479;49.044;8.716;2022-10-15T12:58:54;98429.94;;;21.44;61.41
25610;BME280;13479;49.044;8.716;2022-10-15T13:08:47;98447.19;;;21.43;61.67
25610;BME280;13479;49.044;8.716;2022-10-15T13:11:36;98464.59;;;21.47;61.50
25610;BME280;13479;49.044;8.716;2022-10-15T13:17:14;98478.91;;;21.54;61.38
25610;BME280;13479;49.044;8.716;2022-10-15T13:22:25;98500.88;;;21.58;60.79
25610;BME280;13479;49.044;8.716;2022-10-15T13:24:51;98490.25;;;21.70;60.78
25610;BME280;13479;49.044;8.716;2022-10-15T13:27:32;98484.41;;;21.73;61.36
25610;BME280;13479;49.044;8.716;2022-10-15T13:30:18;98492.50;;;21.73;60.73
25610;BME280;13479;49.044;8.716;2022-10-15T13:32:53;98479.81;;;21.73;61.07
25610;BME280;13479;49.044;8.716;2022-10-15T13:35:24;98481.28;;;21.76;60.93
25610;BME280;13479;49.044;8.716;2022-10-15T13:37:54;98514.75;;;21.75;60.15
25610;BME280;13479;49.044;8.716;2022-10-15T13:40:28;98523.72;;;21.62;60.30
25610;BME280;13479;49.044;8.716;2022-10-15T13:43:05;98477.63;;;21.57;61.12
25610;BME280;13479;49.044;8.716;2022-10-15T13:45:31;98440.91;;;21.49;62.17
25610;BME280;13479;49.044;8.716;2022-10-15T13:47:57;98442.81;;;21.42;62.56
25610;BME280;13479;49.044;8.716;2022-10-15T13:50:24;98444.38;;;21.24;63.87
25610;BME280;13479;49.044;8.716;2022-10-15T13:55:46;98474.66;;;20.74;66.58
25610;BME280;13479;49.044;8.716;2022-10-15T13:58:20;98488.59;;;20.51;68.12
25610;BME280;13479;49.044;8.716;2022-10-15T14:00:56;98503.53;;;20.40;69.14
25610;BME280;13479;49.044;8.716;2022-10-15T14:03:24;98505.41;;;20.33;69.30
25610;BME280;13479;49.044;8.716;2022-10-15T14:05:52;98521.38;;;20.34;70.65
25610;BME280;13479;49.044;8.716;2022-10-15T14:08:31;98521.81;;;20.31;71.22
25610;BME280;13479;49.044;8.716;2022-10-15T14:10:57;98526.56;;;20.36;71.66
25610;BME280;13479;49.044;8.716;2022-10-15T14:13:23;98530.28;;;20.42;72.17
25610;BME280;13479;49.044;8.716;2022-10-15T14:18:35;98528.41;;;20.62;71.02
25610;BME280;13479;49.044;8.716;2022-10-15T14:21:02;98504.13;;;20.76;71.44
25610;BME280;13479;49.044;8.716;2022-10-15T14:23:28;98529.59;;;20.93;70.57
25610;BME280;13479;49.044;8.716;2022-10-15T14:26:00;98537.44;;;21.08;69.86
25610;BME280;13479;49.044;8.716;2022-10-15T14:28:28;98515.84;;;21.15;70.44
25610;BME280;13479;49.044;8.716;2022-10-15T14:30:55;98538.19;;;21.29;69.67
25610;BME280;13479;49.044;8.716;2022-10-15T14:36:10;98561.63;;;21.42;66.74
25610;BME280;13479;49.044;8.716;2022-10-15T14:38:38;98539.00;;;21.36;67.53
25610;BME280;13479;49.044;8.716;2022-10-15T14:46:25;98480.56;;;21.10;67.14
25610;BME280;13479;49.044;8.716;2022-10-15T14:48:55;98471.03;;;21.07;66.83
25610;BME280;13479;49.044;8.716;2022-10-15T14:51:23;98476.44;;;21.01;67.07
25610;BME280;13479;49.044;8.716;2022-10-15T14:53:49;98480.78;;;21.02;66.90
25610;BME280;13479;49.044;8.716;2022-10-15T14:56:22;98476.88;;;20.97;67.63
25610;BME280;13479;49.044;8.716;2022-10-15T14:58:54;98454.31;;;20.85;68.25
25610;BME280;13479;49.044;8.716;2022-10-15T15:01:21;98445.41;;;20.78;69.29
25610;BME280;13479;49.044;8.716;2022-10-15T15:03:53;98453.28;;;20.73;70.15
25610;BME280;13479;49.044;8.716;2022-10-15T15:06:19;98474.84;;;20.73;69.66
25610;BME280;13479;49.044;8.716;2022-10-15T15:08:45;98478.81;;;20.63;69.44
25610;BME280;13479;49.044;8.716;2022-10-15T15:11:28;98489.00;;;20.48;69.51
25610;BME280;13479;49.044;8.716;2022-10-15T15:13:53;98499.16;;;20.46;69.25
25610;BME280;13479;49.044;8.716;2022-10-15T15:16:19;98483.63;;;20.28;69.97
25610;BME280;13479;49.044;8.716;2022-10-15T15:18:45;98474.31;;;20.17;70.91
25610;BME280;13479;49.044;8.716;2022-10-15T15:21:16;98492.38;;;20.10;71.13
25610;BME280;13479;49.044;8.716;2022-10-15T15:23:44;98496.09;;;20.09;71.34
25610;BME280;13479;49.044;8.716;2022-10-15T15:26:09;98498.56;;;20.03;71.83
25610;BME280;13479;49.044;8.716;2022-10-15T15:28:34;98517.66;;;20.02;71.10
25610;BME280;13479;49.044;8.716;2022-10-15T15:31:06;98531.31;;;20.00;70.67
25610;BME280;13479;49.044;8.716;2022-10-15T15:33:32;98529.66;;;19.86;70.73
25610;BME280;13479;49.044;8.716;2022-10-15T15:36:06;98514.25;;;19.80;71.08
25610;BME280;13479;49.044;8.716;2022-10-15T15:38:32;98529.59;;;19.72;70.45
25610;BME280;13479;49.044;8.716;2022-10-15T15:41:00;98533.72;;;19.68;70.06
25610;BME280;13479;49.044;8.716;2022-10-15T15:43:26;98522.50;;;19.58;70.49
25610;BME280;13479;49.044;8.716;2022-10-15T15:45:51;98513.78;;;19.56;70.76
25610;BME280;13479;49.044;8.716;2022-10-15T15:48:16;98507.56;;;19.49;71.09
25610;BME280;13479;49.044;8.716;2022-10-15T15:50:41;98513.34;;;19.45;70.91
25610;BME280;13479;49.044;8.716;2022-10-15T15:53:08;98515.00;;;19.47;70.82
25610;BME280;13479;49.044;8.716;2022-10-15T15:55:35;98495.94;;;19.35;71.69
25610;BME280;13479;49.044;8.716;2022-10-15T15:58:00;98511.66;;;19.38;71.69
25610;BME280;13479;49.044;8.716;2022-10-15T16:00:26;98509.56;;;19.33;71.66
25610;BME280;13479;49.044;8.716;2022-10-15T16:02:51;98506.88;;;19.33;71.71
25610;BME280;13479;49.044;8.716;2022-10-15T16:05:16;98507.47;;;19.22;72.01
25610;BME280;13479;49.044;8.716;2022-10-15T16:07:42;98509.94;;;19.17;72.03
25610;BME280;13479;49.044;8.716;2022-10-15T16:10:08;98508.69;;;19.12;71.99
25610;BME280;13479;49.044;8.716;2022-10-15T16:12:37;98508.88;;;19.11;72.02
25610;BME280;13479;49.044;8.716;2022-10-15T16:15:02;98511.53;;;19.04;72.66
25610;BME280;13479;49.044;8.716;2022-10-15T16:17:27;98522.69;;;19.01;72.53
25610;BME280;13479;49.044;8.716;2022-10-15T16:19:53;98517.28;;;18.94;72.75
25610;BME280;13479;49.044;8.716;2022-10-15T16:22:18;98526.75;;;18.90;72.79
25610;BME280;13479;49.044;8.716;2022-10-15T16:24:43;98535.44;;;18.92;72.79
25610;BME280;13479;49.044;8.716;2022-10-15T16:27:09;98537.47;;;18.83;73.08
25610;BME280;13479;49.044;8.716;2022-10-15T16:29:34;98553.19;;;18.87;73.75
25610;BME280;13479;49.044;8.716;2022-10-15T16:31:59;98554.25;;;18.86;73.70
25610;BME280;13479;49.044;8.716;2022-10-15T16:34:25;98565.63;;;18.88;73.22
25610;BME280;13479;49.044;8.716;2022-10-15T16:36:50;98559.00;;;18.83;73.76
25610;BME280;13479;49.044;8.716;2022-10-15T16:39:15;98573.41;;;18.76;74.21
25610;BME280;13479;49.044;8.716;2022-10-15T16:41:40;98578.75;;;18.69;75.24
25610;BME280;13479;49.044;8.716;2022-10-15T16:44:06;98597.50;;;18.62;75.74
25610;BME280;13479;49.044;8.716;2022-10-15T16:46:31;98608.22;;;18.56;76.37
25610;BME280;13479;49.044;8.716;2022-10-15T16:48:57;98622.44;;;18.49;76.59
25610;BME280;13479;49.044;8.716;2022-10-15T16:51:23;98622.53;;;18.41;77.52
25610;BME280;13479;49.044;8.716;2022-10-15T16:53:49;98640.47;;;18.34;78.53
25610;BME280;13479;49.044;8.716;2022-10-15T16:56:26;98656.78;;;18.32;79.12
25610;BME280;13479;49.044;8.716;2022-10-15T16:58:51;98657.81;;;18.31;79.38
25610;BME280;13479;49.044;8.716;2022-10-15T17:01:20;98657.38;;;18.28;79.72
25610;BME280;13479;49.044;8.716;2022-10-15T17:03:46;98669.66;;;18.37;78.97
25610;BME280;13479;49.044;8.716;2022-10-15T17:06:14;98666.31;;;18.35;78.86
25610;BME280;13479;49.044;8.716;2022-10-15T17:08:46;98648.28;;;18.29;79.87
25610;BME280;13479;49.044;8.716;2022-10-15T17:13:39;98660.56;;;18.16;80.21
25610;BME280;13479;49.044;8.716;2022-10-15T17:16:28;98655.50;;;18.06;80.54
25610;BME280;13479;49.044;8.716;2022-10-15T17:18:55;98659.75;;;18.01;81.54
25610;BME280;13479;49.044;8.716;2022-10-15T17:21:23;98669.69;;;18.00;81.72
25610;BME280;13479;49.044;8.716;2022-10-15T17:23:50;98674.00;;;18.01;81.78
25610;BME280;13479;49.044;8.716;2022-10-15T17:26:19;98677.91;;;17.99;81.97
25610;BME280;13479;49.044;8.716;2022-10-15T17:28:45;98676.97;;;18.06;81.51
25610;BME280;13479;49.044;8.716;2022-10-15T17:31:13;98686.44;;;18.02;81.62
25610;BME280;13479;49.044;8.716;2022-10-15T17:33:40;98693.91;;;18.07;81.17
25610;BME280;13479;49.044;8.716;2022-10-15T17:36:17;98691.44;;;18.05;81.47
25610;BME280;13479;49.044;8.716;2022-10-15T17:38:44;98688.94;;;18.04;81.51
25610;BME280;13479;49.044;8.716;2022-10-15T17:41:15;98694.75;;;18.08;81.16
25610;BME280;13479;49.044;8.716;2022-10-15T17:43:41;98697.66;;;18.06;80.90
25610;BME280;13479;49.044;8.716;2022-10-15T17:46:14;98697.69;;;18.13;80.47
25610;BME280;13479;49.044;8.716;2022-10-15T17:48:41;98685.13;;;18.13;80.53
25610;BME280;13479;49.044;8.716;2022-10-15T17:51:09;98704.44;;;18.24;79.29
25610;BME280;13479;49.044;8.716;2022-10-15T17:53:35;98697.19;;;18.39;77.83
25610;BME280;13479;49.044;8.716;2022-10-15T17:56:09;98669.78;;;18.29;77.84
25610;BME280;13479;49.044;8.716;2022-10-15T17:58:35;98664.97;;;18.24;78.24
25610;BME280;13479;49.044;8.716;2022-10-15T18:01:00;98644.97;;;18.27;78.76
25610;BME280;13479;49.044;8.716;2022-10-15T18:03:25;98668.75;;;18.30;78.37
25610;BME280;13479;49.044;8.716;2022-10-15T18:05:52;98655.72;;;18.27;79.02
25610;BME280;13479;49.044;8.716;2022-10-15T18:08:18;98649.03;;;18.23;79.41
25610;BME280;13479;49.044;8.716;2022-10-15T18:10:44;98679.25;;;18.25;78.74
25610;BME280;13479;49.044;8.716;2022-10-15T18:13:13;98657.47;;;18.19;79.51
25610;BME280;13479;49.044;8.716;2022-10-15T18:15:46;98689.16;;;18.24;78.68
25610;BME280;13479;49.044;8.716;2022-10-15T18:18:13;98670.16;;;18.26;79.30
25610;BME280;13479;49.044;8.716;2022-10-15T18:20:41;98698.94;;;18.32;78.47
25610;BME280;13479;49.044;8.716;2022-10-15T18:23:06;98700.53;;;18.26;78.39
25610;BME280;13479;49.044;8.716;2022-10-15T18:25:32;98711.72;;;18.30;77.88
25610;BME280;13479;49.044;8.716;2022-10-15T18:27:57;98704.72;;;18.29;77.54
25610;BME280;13479;49.044;8.716;2022-10-15T18:30:22;98696.00;;;18.27;77.56
25610;BME280;13479;49.044;8.716;2022-10-15T18:32:48;98692.75;;;18.31;77.65
25610;BME280;13479;49.044;8.716;2022-10-15T18:35:13;98704.25;;;18.25;77.36